sensor_id;sensor_type;location;lat;lon;timestamp;P1;durP1;ratioP1;P2;durP2;ratioP2
75760;SDS011;64373;46.136;8.830;2023-12-20T00:01:46;1.55;;;0.47;;
75760;SDS011;64373;46.136;8.830;2023-12-20T00:04:12;0.50;;;0.15;;
75760;SDS011;64373;46.136;8.830;2023-12-20T00:06:37;0.30;;;0.20;;
75760;SDS011;64373;46.136;8.830;2023-12-20T00:09:03;0.15;;;0.10;;
75760;SDS011;64373;46.136;8.830;2023-12-20T00:11:28;0.43;;;0.35;;
75760;SDS011;64373;46.136;8.830;2023-12-20T00:13:54;0.73;;;0.25;;
75760;SDS011;64373;46.136;8.830;2023-12-20T00:16:19;0.20;;;0.15;;
75760;SDS011;64373;46.136;8.830;2023-12-20T00:18:45;0.25;;;0.20;;
75760;SDS011;64373;46.136;8.830;2023-12-20T00:21:10;0.15;;;0.10;;
75760;SDS011;64373;46.136;8.830;2023-12-20T00:23:36;0.35;;;0.30;;
75760;SDS011;64373;46.136;8.830;2023-12-20T00:26:01;0.40;;;0.20;;
75760;SDS011;64373;46.136;8.830;2023-12-20T00:28:27;0.65;;;0.40;;
75760;SDS011;64373;46.136;8.830;2023-12-20T00:30:52;0.45;;;0.35;;
75760;SDS011;64373;46.136;8.830;2023-12-20T00:33:18;0.85;;;0.40;;
75760;SDS011;64373;46.136;8.830;2023-12-20T00:35:44;0.38;;;0.30;;
75760;SDS011;64373;46.136;8.830;2023-12-20T00:38:09;0.43;;;0.30;;
75760;SDS011;64373;46.136;8.830;2023-12-20T00:40:36;0.60;;;0.35;;
75760;SDS011;64373;46.136;8.830;2023-12-20T00:43:01;0.90;;;0.30;;
75760;SDS011;64373;46.136;8.830;2023-12-20T00:45:27;0.32;;;0.10;;
75760;SDS011;64373;46.136;8.830;2023-12-20T00:47:52;0.20;;;0.20;;
75760;SDS011;64373;46.136;8.830;2023-12-20T00:50:18;0.30;;;0.20;;
75760;SDS011;64373;46.136;8.830;2023-12-20T00:52:43;0.32;;;0.20;;
75760;SDS011;64373;46.136;8.830;2023-12-20T00:55:09;0.20;;;0.20;;
75760;SDS011;64373;46.136;8.830;2023-12-20T00:57:34;0.20;;;0.20;;
75760;SDS011;64373;46.136;8.830;2023-12-20T01:00:00;0.30;;;0.30;;
75760;SDS011;64373;46.136;8.830;2023-12-20T01:02:26;0.20;;;0.20;;
75760;SDS011;64373;46.136;8.830;2023-12-20T01:04:51;0.20;;;0.20;;
75760;SDS011;64373;46.136;8.830;2023-12-20T01:07:17;0.28;;;0.17;;
75760;SDS011;64373;46.136;8.830;2023-12-20T01:09:42;0.40;;;0.10;;
75760;SDS011;64373;46.136;8.830;2023-12-20T01:12:08;0.30;;;0.20;;
75760;SDS011;64373;46.136;8.830;2023-12-20T01:14:33;0.20;;;0.20;;
75760;SDS011;64373;46.136;8.830;2023-12-20T01:16:59;0.20;;;0.10;;
75760;SDS011;64373;46.136;8.830;2023-12-20T01:19:24;0.50;;;0.20;;
75760;SDS011;64373;46.136;8.830;2023-12-20T01:21:50;0.10;;;0.10;;
75760;SDS011;64373;46.136;8.830;2023-12-20T01:24:15;0.30;;;0.20;;
75760;SDS011;64373;46.136;8.830;2023-12-20T01:26:41;0.20;;;0.20;;
75760;SDS011;64373;46.136;8.830;2023-12-20T01:29:07;0.10;;;0.10;;
75760;SDS011;64373;46.136;8.830;2023-12-20T01:31:32;1.02;;;0.40;;
75760;SDS011;64373;46.136;8.830;2023-12-20T01:33:58;0.43;;;0.40;;
75760;SDS011;64373;46.136;8.830;2023-12-20T01:36:23;0.57;;;0.40;;
75760;SDS011;64373;46.136;8.830;2023-12-20T01:38:49;0.20;;;0.20;;
75760;SDS011;64373;46.136;8.830;2023-12-20T01:41:14;0.60;;;0.30;;
75760;SDS011;64373;46.136;8.830;2023-12-20T01:43:40;0.47;;;0.22;;
75760;SDS011;64373;46.136;8.830;2023-12-20T01:46:05;0.60;;;0.30;;
75760;SDS011;64373;46.136;8.830;2023-12-20T01:48:31;0.50;;;0.40;;
75760;SDS011;64373;46.136;8.830;2023-12-20T01:50:58;1.05;;;0.30;;
75760;SDS011;64373;46.136;8.830;2023-12-20T01:53:24;0.45;;;0.30;;
75760;SDS011;64373;46.136;8.830;2023-12-20T01:55:50;0.40;;;0.25;;
75760;SDS011;64373;46.136;8.830;2023-12-20T01:58:17;0.40;;;0.30;;
75760;SDS011;64373;46.136;8.830;2023-12-20T02:00:44;0.65;;;0.20;;
75760;SDS011;64373;46.136;8.830;2023-12-20T02:03:09;1.40;;;0.40;;
75760;SDS011;64373;46.136;8.830;2023-12-20T02:05:35;0.38;;;0.32;;
75760;SDS011;64373;46.136;8.830;2023-12-20T02:08:02;0.32;;;0.20;;
75760;SDS011;64373;46.136;8.830;2023-12-20T02:10:28;0.30;;;0.20;;
75760;SDS011;64373;46.136;8.830;2023-12-20T02:12:54;0.20;;;0.20;;
75760;SDS011;64373;46.136;8.830;2023-12-20T02:15:19;0.22;;;0.20;;
75760;SDS011;64373;46.136;8.830;2023-12-20T02:17:46;0.20;;;0.10;;
75760;SDS011;64373;46.136;8.830;2023-12-20T02:20:12;0.35;;;0.20;;
75760;SDS011;64373;46.136;8.830;2023-12-20T02:22:37;0.75;;;0.20;;
75760;SDS011;64373;46.136;8.830;2023-12-20T02:25:03;0.30;;;0.20;;
75760;SDS011;64373;46.136;8.830;2023-12-20T02:27:28;0.50;;;0.20;;
75760;SDS011;64373;46.136;8.830;2023-12-20T02:29:54;0.20;;;0.17;;
75760;SDS011;64373;46.136;8.830;2023-12-20T02:32:20;0.52;;;0.30;;
75760;SDS011;64373;46.136;8.830;2023-12-20T02:34:47;0.10;;;0.10;;
75760;SDS011;64373;46.136;8.830;2023-12-20T02:37:13;0.57;;;0.20;;
75760;SDS011;64373;46.136;8.830;2023-12-20T02:39:38;0.30;;;0.20;;
75760;SDS011;64373;46.136;8.830;2023-12-20T02:42:04;0.45;;;0.20;;
75760;SDS011;64373;46.136;8.830;2023-12-20T02:44:29;0.45;;;0.30;;
75760;SDS011;64373;46.136;8.830;2023-12-20T02:46:55;0.20;;;0.20;;
75760;SDS011;64373;46.136;8.830;2023-12-20T02:49:20;0.28;;;0.15;;
75760;SDS011;64373;46.136;8.830;2023-12-20T02:51:46;0.20;;;0.10;;
75760;SDS011;64373;46.136;8.830;2023-12-20T02:54:12;0.10;;;0.10;;
75760;SDS011;64373;46.136;8.830;2023-12-20T02:56:37;0.20;;;0.20;;
75760;SDS011;64373;46.136;8.830;2023-12-20T02:59:03;0.47;;;0.32;;
75760;SDS011;64373;46.136;8.830;2023-12-20T03:01:31;0.20;;;0.10;;
75760;SDS011;64373;46.136;8.830;2023-12-20T03:03:56;0.30;;;0.20;;
75760;SDS011;64373;46.136;8.830;2023-12-20T03:06:22;0.30;;;0.30;;
75760;SDS011;64373;46.136;8.830;2023-12-20T03:08:47;0.10;;;0.10;;
75760;SDS011;64373;46.136;8.830;2023-12-20T03:11:13;0.30;;;0.20;;
75760;SDS011;64373;46.136;8.830;2023-12-20T03:13:38;0.10;;;0.10;;
75760;SDS011;64373;46.136;8.830;2023-12-20T03:16:10;0.17;;;0.17;;
75760;SDS011;64373;46.136;8.830;2023-12-20T03:18:36;0.10;;;0.10;;
75760;SDS011;64373;46.136;8.830;2023-12-20T03:21:02;0.10;;;0.10;;
75760;SDS011;64373;46.136;8.830;2023-12-20T03:23:28;0.47;;;0.10;;
75760;SDS011;64373;46.136;8.830;2023-12-20T03:25:55;0.28;;;0.10;;
75760;SDS011;64373;46.136;8.830;2023-12-20T03:28:21;0.22;;;0.20;;
75760;SDS011;64373;46.136;8.830;2023-12-20T03:30:48;0.13;;;0.08;;
75760;SDS011;64373;46.136;8.830;2023-12-20T03:33:13;0.30;;;0.28;;
75760;SDS011;64373;46.136;8.830;2023-12-20T03:35:39;0.30;;;0.20;;
75760;SDS011;64373;46.136;8.830;2023-12-20T03:38:04;0.35;;;0.30;;
75760;SDS011;64373;46.136;8.830;2023-12-20T03:40:30;0.30;;;0.20;;
75760;SDS011;64373;46.136;8.830;2023-12-20T03:42:55;0.90;;;0.40;;
75760;SDS011;64373;46.136;8.830;2023-12-20T03:45:21;1.58;;;0.40;;
75760;SDS011;64373;46.136;8.830;2023-12-20T03:47:46;0.68;;;0.35;;
75760;SDS011;64373;46.136;8.830;2023-12-20T03:50:12;0.63;;;0.43;;
75760;SDS011;64373;46.136;8.830;2023-12-20T03:52:38;0.73;;;0.50;;
75760;SDS011;64373;46.136;8.830;2023-12-20T03:55:03;0.47;;;0.30;;
75760;SDS011;64373;46.136;8.830;2023-12-20T03:57:29;0.40;;;0.30;;
75760;SDS011;64373;46.136;8.830;2023-12-20T03:59:55;0.38;;;0.32;;
75760;SDS011;64373;46.136;8.830;2023-12-20T04:02:20;0.90;;;0.50;;
75760;SDS011;64373;46.136;8.830;2023-12-20T04:04:46;0.55;;;0.30;;
75760;SDS011;64373;46.136;8.830;2023-12-20T04:07:11;0.63;;;0.25;;
75760;SDS011;64373;46.136;8.830;2023-12-20T04:09:37;0.20;;;0.20;;
75760;SDS011;64373;46.136;8.830;2023-12-20T04:12:02;0.45;;;0.30;;
75760;SDS011;64373;46.136;8.830;2023-12-20T04:14:28;0.20;;;0.10;;
75760;SDS011;64373;46.136;8.830;2023-12-20T04:16:54;0.20;;;0.20;;
75760;SDS011;64373;46.136;8.830;2023-12-20T04:19:19;0.43;;;0.30;;
75760;SDS011;64373;46.136;8.830;2023-12-20T04:21:45;0.50;;;0.25;;
75760;SDS011;64373;46.136;8.830;2023-12-20T04:24:10;0.43;;;0.20;;
75760;SDS011;64373;46.136;8.830;2023-12-20T04:26:36;0.55;;;0.22;;
75760;SDS011;64373;46.136;8.830;2023-12-20T04:29:01;0.47;;;0.25;;
75760;SDS011;64373;46.136;8.830;2023-12-20T04:31:27;0.30;;;0.20;;
75760;SDS011;64373;46.136;8.830;2023-12-20T04:33:52;0.20;;;0.20;;
75760;SDS011;64373;46.136;8.830;2023-12-20T04:36:19;0.50;;;0.22;;
75760;SDS011;64373;46.136;8.830;2023-12-20T04:38:44;0.17;;;0.10;;
75760;SDS011;64373;46.136;8.830;2023-12-20T04:41:10;0.70;;;0.30;;
75760;SDS011;64373;46.136;8.830;2023-12-20T04:43:35;0.13;;;0.10;;
75760;SDS011;64373;46.136;8.830;2023-12-20T04:46:01;0.20;;;0.20;;
75760;SDS011;64373;46.136;8.830;2023-12-20T04:48:26;0.25;;;0.20;;
75760;SDS011;64373;46.136;8.830;2023-12-20T04:50:52;0.55;;;0.25;;
75760;SDS011;64373;46.136;8.830;2023-12-20T04:53:18;0.25;;;0.20;;
75760;SDS011;64373;46.136;8.830;2023-12-20T04:55:43;0.98;;;0.50;;
75760;SDS011;64373;46.136;8.830;2023-12-20T04:58:09;0.88;;;0.50;;
75760;SDS011;64373;46.136;8.830;2023-12-20T05:00:34;0.50;;;0.45;;
75760;SDS011;64373;46.136;8.830;2023-12-20T05:03:00;0.50;;;0.30;;
75760;SDS011;64373;46.136;8.830;2023-12-20T05:05:25;1.30;;;0.90;;
75760;SDS011;64373;46.136;8.830;2023-12-20T05:07:51;1.08;;;0.73;;
75760;SDS011;64373;46.136;8.830;2023-12-20T05:10:17;1.02;;;0.60;;
75760;SDS011;64373;46.136;8.830;2023-12-20T05:12:43;0.93;;;0.60;;
75760;SDS011;64373;46.136;8.830;2023-12-20T05:15:08;0.65;;;0.38;;
75760;SDS011;64373;46.136;8.830;2023-12-20T05:17:34;0.93;;;0.40;;
75760;SDS011;64373;46.136;8.830;2023-12-20T05:20:00;0.63;;;0.40;;
75760;SDS011;64373;46.136;8.830;2023-12-20T05:22:25;1.10;;;0.40;;
75760;SDS011;64373;46.136;8.830;2023-12-20T05:24:50;0.30;;;0.30;;
75760;SDS011;64373;46.136;8.830;2023-12-20T05:27:16;0.30;;;0.20;;
75760;SDS011;64373;46.136;8.830;2023-12-20T05:29:41;1.05;;;0.50;;
75760;SDS011;64373;46.136;8.830;2023-12-20T05:32:07;0.60;;;0.47;;
75760;SDS011;64373;46.136;8.830;2023-12-20T05:34:32;0.70;;;0.47;;
75760;SDS011;64373;46.136;8.830;2023-12-20T05:36:58;0.85;;;0.70;;
75760;SDS011;64373;46.136;8.830;2023-12-20T05:39:23;0.73;;;0.40;;
75760;SDS011;64373;46.136;8.830;2023-12-20T05:41:49;0.63;;;0.43;;
75760;SDS011;64373;46.136;8.830;2023-12-20T05:44:14;1.08;;;0.50;;
75760;SDS011;64373;46.136;8.830;2023-12-20T05:46:40;0.60;;;0.30;;
75760;SDS011;64373;46.136;8.830;2023-12-20T05:49:05;0.80;;;0.30;;
75760;SDS011;64373;46.136;8.830;2023-12-20T05:51:31;0.35;;;0.20;;
75760;SDS011;64373;46.136;8.830;2023-12-20T05:53:57;0.40;;;0.30;;
75760;SDS011;64373;46.136;8.830;2023-12-20T05:56:23;0.25;;;0.20;;
75760;SDS011;64373;46.136;8.830;2023-12-20T05:58:49;1.35;;;0.60;;
75760;SDS011;64373;46.136;8.830;2023-12-20T06:01:14;0.70;;;0.50;;
75760;SDS011;64373;46.136;8.830;2023-12-20T06:03:42;0.70;;;0.45;;
75760;SDS011;64373;46.136;8.830;2023-12-20T06:06:08;0.40;;;0.30;;
75760;SDS011;64373;46.136;8.830;2023-12-20T06:08:34;0.85;;;0.50;;
75760;SDS011;64373;46.136;8.830;2023-12-20T06:10:59;1.08;;;0.55;;
75760;SDS011;64373;46.136;8.830;2023-12-20T06:13:25;0.57;;;0.40;;
75760;SDS011;64373;46.136;8.830;2023-12-20T06:15:51;1.38;;;0.57;;
75760;SDS011;64373;46.136;8.830;2023-12-20T06:18:17;0.60;;;0.40;;
75760;SDS011;64373;46.136;8.830;2023-12-20T06:20:42;1.20;;;0.80;;
75760;SDS011;64373;46.136;8.830;2023-12-20T06:23:08;0.52;;;0.40;;
75760;SDS011;64373;46.136;8.830;2023-12-20T06:25:33;0.73;;;0.40;;
75760;SDS011;64373;46.136;8.830;2023-12-20T06:27:58;1.05;;;0.50;;
75760;SDS011;64373;46.136;8.830;2023-12-20T06:30:24;0.95;;;0.60;;
75760;SDS011;64373;46.136;8.830;2023-12-20T06:32:50;0.77;;;0.47;;
75760;SDS011;64373;46.136;8.830;2023-12-20T06:35:16;0.57;;;0.35;;
75760;SDS011;64373;46.136;8.830;2023-12-20T06:37:41;1.20;;;0.90;;
75760;SDS011;64373;46.136;8.830;2023-12-20T06:40:10;1.20;;;0.90;;
75760;SDS011;64373;46.136;8.830;2023-12-20T06:42:36;2.03;;;0.65;;
75760;SDS011;64373;46.136;8.830;2023-12-20T06:45:01;1.50;;;0.95;;
75760;SDS011;64373;46.136;8.830;2023-12-20T06:47:27;1.45;;;0.95;;
75760;SDS011;64373;46.136;8.830;2023-12-20T06:49:53;1.25;;;0.90;;
75760;SDS011;64373;46.136;8.830;2023-12-20T06:52:18;1.17;;;0.85;;
75760;SDS011;64373;46.136;8.830;2023-12-20T06:54:44;1.40;;;1.15;;
75760;SDS011;64373;46.136;8.830;2023-12-20T06:57:09;2.45;;;1.13;;
75760;SDS011;64373;46.136;8.830;2023-12-20T06:59:38;2.10;;;1.08;;
75760;SDS011;64373;46.136;8.830;2023-12-20T07:02:05;1.10;;;0.80;;
75760;SDS011;64373;46.136;8.830;2023-12-20T07:04:31;1.17;;;0.80;;
75760;SDS011;64373;46.136;8.830;2023-12-20T07:06:56;1.08;;;0.73;;
75760;SDS011;64373;46.136;8.830;2023-12-20T07:09:25;1.70;;;0.90;;
75760;SDS011;64373;46.136;8.830;2023-12-20T07:11:51;1.85;;;1.27;;
75760;SDS011;64373;46.136;8.830;2023-12-20T07:14:17;1.35;;;0.90;;
75760;SDS011;64373;46.136;8.830;2023-12-20T07:16:42;1.98;;;1.00;;
75760;SDS011;64373;46.136;8.830;2023-12-20T07:19:08;2.58;;;1.50;;
75760;SDS011;64373;46.136;8.830;2023-12-20T07:21:33;1.33;;;0.90;;
75760;SDS011;64373;46.136;8.830;2023-12-20T07:23:59;1.55;;;1.08;;
75760;SDS011;64373;46.136;8.830;2023-12-20T07:26:24;1.15;;;0.85;;
75760;SDS011;64373;46.136;8.830;2023-12-20T07:28:50;1.90;;;1.00;;
75760;SDS011;64373;46.136;8.830;2023-12-20T07:31:15;1.20;;;0.80;;
75760;SDS011;64373;46.136;8.830;2023-12-20T07:33:41;1.42;;;0.80;;
75760;SDS011;64373;46.136;8.830;2023-12-20T07:36:07;0.63;;;0.63;;
75760;SDS011;64373;46.136;8.830;2023-12-20T07:38:33;1.17;;;0.63;;
75760;SDS011;64373;46.136;8.830;2023-12-20T07:40:58;1.17;;;0.55;;
75760;SDS011;64373;46.136;8.830;2023-12-20T07:43:24;0.70;;;0.50;;
75760;SDS011;64373;46.136;8.830;2023-12-20T07:45:50;0.57;;;0.32;;
75760;SDS011;64373;46.136;8.830;2023-12-20T07:48:15;0.80;;;0.47;;
75760;SDS011;64373;46.136;8.830;2023-12-20T07:50:41;1.02;;;0.57;;
75760;SDS011;64373;46.136;8.830;2023-12-20T07:53:07;0.80;;;0.60;;
75760;SDS011;64373;46.136;8.830;2023-12-20T07:55:32;0.70;;;0.50;;
75760;SDS011;64373;46.136;8.830;2023-12-20T07:57:58;0.80;;;0.50;;
75760;SDS011;64373;46.136;8.830;2023-12-20T08:00:24;0.65;;;0.50;;
75760;SDS011;64373;46.136;8.830;2023-12-20T08:02:49;0.80;;;0.45;;
75760;SDS011;64373;46.136;8.830;2023-12-20T08:05:15;0.95;;;0.30;;
75760;SDS011;64373;46.136;8.830;2023-12-20T08:07:40;0.30;;;0.30;;
75760;SDS011;64373;46.136;8.830;2023-12-20T08:10:06;0.60;;;0.30;;
75760;SDS011;64373;46.136;8.830;2023-12-20T08:12:32;0.65;;;0.30;;
75760;SDS011;64373;46.136;8.830;2023-12-20T08:14:58;0.20;;;0.20;;
75760;SDS011;64373;46.136;8.830;2023-12-20T08:17:24;0.40;;;0.30;;
75760;SDS011;64373;46.136;8.830;2023-12-20T08:19:49;0.20;;;0.17;;
75760;SDS011;64373;46.136;8.830;2023-12-20T08:22:15;0.30;;;0.22;;
75760;SDS011;64373;46.136;8.830;2023-12-20T08:24:41;1.10;;;0.60;;
75760;SDS011;64373;46.136;8.830;2023-12-20T08:27:06;0.43;;;0.40;;
75760;SDS011;64373;46.136;8.830;2023-12-20T08:29:32;0.40;;;0.40;;
75760;SDS011;64373;46.136;8.830;2023-12-20T08:31:57;0.25;;;0.25;;
75760;SDS011;64373;46.136;8.830;2023-12-20T08:34:24;1.52;;;0.40;;
75760;SDS011;64373;46.136;8.830;2023-12-20T08:36:50;0.82;;;0.57;;
75760;SDS011;64373;46.136;8.830;2023-12-20T08:39:16;0.95;;;0.40;;
75760;SDS011;64373;46.136;8.830;2023-12-20T08:41:42;0.60;;;0.40;;
75760;SDS011;64373;46.136;8.830;2023-12-20T08:44:08;1.52;;;0.60;;
75760;SDS011;64373;46.136;8.830;2023-12-20T08:46:34;1.27;;;0.75;;
75760;SDS011;64373;46.136;8.830;2023-12-20T08:49:00;1.75;;;0.93;;
75760;SDS011;64373;46.136;8.830;2023-12-20T08:51:26;1.00;;;0.70;;
75760;SDS011;64373;46.136;8.830;2023-12-20T08:53:52;0.93;;;0.57;;
75760;SDS011;64373;46.136;8.830;2023-12-20T08:56:18;0.80;;;0.50;;
75760;SDS011;64373;46.136;8.830;2023-12-20T08:58:44;0.40;;;0.30;;
75760;SDS011;64373;46.136;8.830;2023-12-20T09:01:11;0.40;;;0.25;;
75760;SDS011;64373;46.136;8.830;2023-12-20T09:03:36;0.82;;;0.50;;
75760;SDS011;64373;46.136;8.830;2023-12-20T09:06:02;1.52;;;0.70;;
75760;SDS011;64373;46.136;8.830;2023-12-20T09:08:28;1.00;;;0.57;;
75760;SDS011;64373;46.136;8.830;2023-12-20T09:10:54;0.95;;;0.60;;
75760;SDS011;64373;46.136;8.830;2023-12-20T09:13:19;1.65;;;0.85;;
75760;SDS011;64373;46.136;8.830;2023-12-20T09:15:45;0.40;;;0.38;;
75760;SDS011;64373;46.136;8.830;2023-12-20T09:18:11;0.88;;;0.60;;
75760;SDS011;64373;46.136;8.830;2023-12-20T09:20:37;0.80;;;0.52;;
75760;SDS011;64373;46.136;8.830;2023-12-20T09:23:02;0.50;;;0.40;;
75760;SDS011;64373;46.136;8.830;2023-12-20T09:25:28;1.15;;;0.60;;
75760;SDS011;64373;46.136;8.830;2023-12-20T09:27:54;0.40;;;0.38;;
75760;SDS011;64373;46.136;8.830;2023-12-20T09:30:20;0.65;;;0.30;;
75760;SDS011;64373;46.136;8.830;2023-12-20T09:32:46;0.30;;;0.30;;
75760;SDS011;64373;46.136;8.830;2023-12-20T09:35:11;2.67;;;1.50;;
75760;SDS011;64373;46.136;8.830;2023-12-20T09:37:37;2.97;;;1.67;;
75760;SDS011;64373;46.136;8.830;2023-12-20T09:40:03;3.35;;;1.80;;
75760;SDS011;64373;46.136;8.830;2023-12-20T09:45:09;2.17;;;1.17;;
75760;SDS011;64373;46.136;8.830;2023-12-20T09:47:36;1.27;;;0.85;;
75760;SDS011;64373;46.136;8.830;2023-12-20T09:50:02;0.80;;;0.50;;
75760;SDS011;64373;46.136;8.830;2023-12-20T09:52:28;0.82;;;0.55;;
75760;SDS011;64373;46.136;8.830;2023-12-20T09:54:53;0.85;;;0.50;;
75760;SDS011;64373;46.136;8.830;2023-12-20T09:57:21;0.63;;;0.40;;
75760;SDS011;64373;46.136;8.830;2023-12-20T09:59:46;0.90;;;0.50;;
75760;SDS011;64373;46.136;8.830;2023-12-20T10:02:12;1.00;;;0.50;;
75760;SDS011;64373;46.136;8.830;2023-12-20T10:04:46;0.60;;;0.40;;
75760;SDS011;64373;46.136;8.830;2023-12-20T10:07:12;0.80;;;0.50;;
75760;SDS011;64373;46.136;8.830;2023-12-20T10:09:38;0.40;;;0.30;;
75760;SDS011;64373;46.136;8.830;2023-12-20T10:12:04;0.40;;;0.30;;
75760;SDS011;64373;46.136;8.830;2023-12-20T10:14:30;0.73;;;0.40;;
75760;SDS011;64373;46.136;8.830;2023-12-20T10:17:01;0.50;;;0.40;;
75760;SDS011;64373;46.136;8.830;2023-12-20T10:19:28;0.43;;;0.20;;
75760;SDS011;64373;46.136;8.830;2023-12-20T10:21:53;0.40;;;0.30;;
75760;SDS011;64373;46.136;8.830;2023-12-20T10:24:18;0.43;;;0.20;;
75760;SDS011;64373;46.136;8.830;2023-12-20T10:26:44;0.98;;;0.30;;
75760;SDS011;64373;46.136;8.830;2023-12-20T10:29:09;0.15;;;0.15;;
75760;SDS011;64373;46.136;8.830;2023-12-20T10:31:35;0.50;;;0.30;;
75760;SDS011;64373;46.136;8.830;2023-12-20T10:34:02;0.20;;;0.20;;
75760;SDS011;64373;46.136;8.830;2023-12-20T10:36:29;0.45;;;0.20;;
75760;SDS011;64373;46.136;8.830;2023-12-20T10:38:56;0.52;;;0.20;;
75760;SDS011;64373;46.136;8.830;2023-12-20T10:41:30;0.30;;;0.10;;
75760;SDS011;64373;46.136;8.830;2023-12-20T10:44:03;0.30;;;0.20;;
75760;SDS011;64373;46.136;8.830;2023-12-20T10:46:31;0.63;;;0.20;;
75760;SDS011;64373;46.136;8.830;2023-12-20T10:49:03;0.40;;;0.30;;
75760;SDS011;64373;46.136;8.830;2023-12-20T10:51:30;0.20;;;0.15;;
75760;SDS011;64373;46.136;8.830;2023-12-20T10:53:56;0.30;;;0.20;;
75760;SDS011;64373;46.136;8.830;2023-12-20T10:56:22;0.47;;;0.13;;
75760;SDS011;64373;46.136;8.830;2023-12-20T10:58:51;0.65;;;0.30;;
75760;SDS011;64373;46.136;8.830;2023-12-20T11:01:17;0.35;;;0.15;;
75760;SDS011;64373;46.136;8.830;2023-12-20T11:03:51;0.20;;;0.10;;
75760;SDS011;64373;46.136;8.830;2023-12-20T11:08:55;0.32;;;0.20;;
75760;SDS011;64373;46.136;8.830;2023-12-20T11:17:29;0.73;;;0.50;;
75760;SDS011;64373;46.136;8.830;2023-12-20T11:22:20;0.35;;;0.15;;
75760;SDS011;64373;46.136;8.830;2023-12-20T11:24:46;0.17;;;0.10;;
75760;SDS011;64373;46.136;8.830;2023-12-20T11:27:12;0.03;;;0.03;;
75760;SDS011;64373;46.136;8.830;2023-12-20T11:29:38;0.10;;;0.10;;
75760;SDS011;64373;46.136;8.830;2023-12-20T11:34:59;0.15;;;0.10;;
75760;SDS011;64373;46.136;8.830;2023-12-20T11:37:29;0.10;;;0.10;;
75760;SDS011;64373;46.136;8.830;2023-12-20T11:40:08;0.28;;;0.10;;
75760;SDS011;64373;46.136;8.830;2023-12-20T11:42:39;0.03;;;0.03;;
75760;SDS011;64373;46.136;8.830;2023-12-20T11:45:08;0.10;;;0.10;;
75760;SDS011;64373;46.136;8.830;2023-12-20T11:47:34;0.00;;;0.00;;
75760;SDS011;64373;46.136;8.830;2023-12-20T11:50:00;0.10;;;0.10;;
75760;SDS011;64373;46.136;8.830;2023-12-20T11:52:28;0.00;;;0.00;;
75760;SDS011;64373;46.136;8.830;2023-12-20T11:54:54;0.10;;;0.10;;
75760;SDS011;64373;46.136;8.830;2023-12-20T11:57:20;0.10;;;0.10;;
75760;SDS011;64373;46.136;8.830;2023-12-20T11:59:45;0.30;;;0.10;;
75760;SDS011;64373;46.136;8.830;2023-12-20T12:02:11;0.20;;;0.10;;
75760;SDS011;64373;46.136;8.830;2023-12-20T12:04:37;0.10;;;0.00;;
75760;SDS011;64373;46.136;8.830;2023-12-20T12:07:03;0.05;;;0.03;;
75760;SDS011;64373;46.136;8.830;2023-12-20T12:09:28;0.20;;;0.13;;
75760;SDS011;64373;46.136;8.830;2023-12-20T12:11:54;0.00;;;0.00;;
75760;SDS011;64373;46.136;8.830;2023-12-20T12:14:20;0.10;;;0.03;;
75760;SDS011;64373;46.136;8.830;2023-12-20T12:16:46;0.10;;;0.00;;
75760;SDS011;64373;46.136;8.830;2023-12-20T12:19:21;0.20;;;0.10;;
75760;SDS011;64373;46.136;8.830;2023-12-20T12:21:48;0.10;;;0.10;;
75760;SDS011;64373;46.136;8.830;2023-12-20T12:24:42;0.10;;;0.00;;
75760;SDS011;64373;46.136;8.830;2023-12-20T12:27:08;0.10;;;0.10;;
75760;SDS011;64373;46.136;8.830;2023-12-20T12:29:34;0.38;;;0.20;;
75760;SDS011;64373;46.136;8.830;2023-12-20T12:32:00;0.30;;;0.10;;
75760;SDS011;64373;46.136;8.830;2023-12-20T12:34:27;0.38;;;0.10;;
75760;SDS011;64373;46.136;8.830;2023-12-20T12:36:53;0.10;;;0.10;;
75760;SDS011;64373;46.136;8.830;2023-12-20T12:39:19;0.28;;;0.20;;
75760;SDS011;64373;46.136;8.830;2023-12-20T12:41:45;0.15;;;0.10;;
75760;SDS011;64373;46.136;8.830;2023-12-20T12:44:10;0.28;;;0.20;;
75760;SDS011;64373;46.136;8.830;2023-12-20T12:46:36;0.10;;;0.10;;
75760;SDS011;64373;46.136;8.830;2023-12-20T12:49:01;0.30;;;0.10;;
75760;SDS011;64373;46.136;8.830;2023-12-20T12:51:27;0.22;;;0.10;;
75760;SDS011;64373;46.136;8.830;2023-12-20T12:53:53;0.05;;;0.05;;
75760;SDS011;64373;46.136;8.830;2023-12-20T12:56:18;0.10;;;0.00;;
75760;SDS011;64373;46.136;8.830;2023-12-20T12:58:44;0.50;;;0.20;;
75760;SDS011;64373;46.136;8.830;2023-12-20T13:01:10;0.10;;;0.10;;
75760;SDS011;64373;46.136;8.830;2023-12-20T13:03:35;0.08;;;0.00;;
75760;SDS011;64373;46.136;8.830;2023-12-20T13:06:01;0.40;;;0.15;;
75760;SDS011;64373;46.136;8.830;2023-12-20T13:08:27;0.10;;;0.10;;
75760;SDS011;64373;46.136;8.830;2023-12-20T13:10:54;0.03;;;0.00;;
75760;SDS011;64373;46.136;8.830;2023-12-20T13:13:20;0.20;;;0.10;;
75760;SDS011;64373;46.136;8.830;2023-12-20T13:15:46;0.08;;;0.00;;
75760;SDS011;64373;46.136;8.830;2023-12-20T13:18:16;0.20;;;0.20;;
75760;SDS011;64373;46.136;8.830;2023-12-20T13:20:43;0.80;;;0.38;;
75760;SDS011;64373;46.136;8.830;2023-12-20T13:23:09;0.80;;;0.10;;
75760;SDS011;64373;46.136;8.830;2023-12-20T13:25:34;0.20;;;0.20;;
75760;SDS011;64373;46.136;8.830;2023-12-20T13:28:00;0.15;;;0.05;;
75760;SDS011;64373;46.136;8.830;2023-12-20T13:30:25;0.10;;;0.08;;
75760;SDS011;64373;46.136;8.830;2023-12-20T13:32:51;0.00;;;0.00;;
75760;SDS011;64373;46.136;8.830;2023-12-20T13:35:16;0.85;;;0.10;;
75760;SDS011;64373;46.136;8.830;2023-12-20T13:37:42;0.30;;;0.10;;
75760;SDS011;64373;46.136;8.830;2023-12-20T13:40:07;0.43;;;0.10;;
75760;SDS011;64373;46.136;8.830;2023-12-20T13:42:33;0.20;;;0.13;;
75760;SDS011;64373;46.136;8.830;2023-12-20T13:44:59;0.20;;;0.20;;
75760;SDS011;64373;46.136;8.830;2023-12-20T13:47:25;0.20;;;0.20;;
75760;SDS011;64373;46.136;8.830;2023-12-20T13:49:50;0.20;;;0.15;;
75760;SDS011;64373;46.136;8.830;2023-12-20T13:52:15;0.10;;;0.10;;
75760;SDS011;64373;46.136;8.830;2023-12-20T13:54:41;0.00;;;0.00;;
75760;SDS011;64373;46.136;8.830;2023-12-20T13:57:07;0.10;;;0.10;;
75760;SDS011;64373;46.136;8.830;2023-12-20T13:59:32;0.10;;;0.10;;
75760;SDS011;64373;46.136;8.830;2023-12-20T14:01:58;0.45;;;0.20;;
75760;SDS011;64373;46.136;8.830;2023-12-20T14:04:23;0.00;;;0.00;;
75760;SDS011;64373;46.136;8.830;2023-12-20T14:06:48;0.03;;;0.03;;
75760;SDS011;64373;46.136;8.830;2023-12-20T14:09:14;0.10;;;0.00;;
75760;SDS011;64373;46.136;8.830;2023-12-20T14:11:40;0.10;;;0.10;;
75760;SDS011;64373;46.136;8.830;2023-12-20T14:14:09;0.10;;;0.00;;
75760;SDS011;64373;46.136;8.830;2023-12-20T14:16:34;0.20;;;0.10;;
75760;SDS011;64373;46.136;8.830;2023-12-20T14:19:00;0.10;;;0.10;;
75760;SDS011;64373;46.136;8.830;2023-12-20T14:21:28;0.20;;;0.10;;
75760;SDS011;64373;46.136;8.830;2023-12-20T14:23:53;0.20;;;0.15;;
75760;SDS011;64373;46.136;8.830;2023-12-20T14:26:19;0.10;;;0.10;;
75760;SDS011;64373;46.136;8.830;2023-12-20T14:28:44;0.20;;;0.10;;
75760;SDS011;64373;46.136;8.830;2023-12-20T14:31:10;0.13;;;0.10;;
75760;SDS011;64373;46.136;8.830;2023-12-20T14:33:35;0.17;;;0.17;;
75760;SDS011;64373;46.136;8.830;2023-12-20T14:36:04;0.10;;;0.10;;
75760;SDS011;64373;46.136;8.830;2023-12-20T14:38:33;0.20;;;0.10;;
75760;SDS011;64373;46.136;8.830;2023-12-20T14:40:58;0.70;;;0.10;;
75760;SDS011;64373;46.136;8.830;2023-12-20T14:43:25;0.10;;;0.10;;
75760;SDS011;64373;46.136;8.830;2023-12-20T14:45:54;0.10;;;0.10;;
75760;SDS011;64373;46.136;8.830;2023-12-20T14:48:20;0.20;;;0.20;;
75760;SDS011;64373;46.136;8.830;2023-12-20T14:50:46;0.63;;;0.10;;
75760;SDS011;64373;46.136;8.830;2023-12-20T14:53:13;0.10;;;0.10;;
75760;SDS011;64373;46.136;8.830;2023-12-20T14:55:41;0.15;;;0.15;;
75760;SDS011;64373;46.136;8.830;2023-12-20T14:58:07;0.82;;;0.10;;